createdAt,value
2022-08-12T00:01:14.092Z,19.60
2022-08-12T00:04:00.203Z,19.60
2022-08-12T00:06:47.791Z,19.60
2022-08-12T00:09:33.833Z,19.60
2022-08-12T00:12:22.454Z,19.60
2022-08-12T00:15:08.320Z,19.60
2022-08-12T00:17:54.193Z,19.50
2022-08-12T00:20:39.781Z,19.60
2022-08-12T00:23:25.649Z,19.60
2022-08-12T00:26:23.315Z,19.60
2022-08-12T00:29:13.303Z,19.60
2022-08-12T00:32:00.978Z,19.60
2022-08-12T00:34:49.225Z,19.60
2022-08-12T00:37:36.526Z,19.60
2022-08-12T00:40:24.149Z,19.60
2022-08-12T00:42:53.892Z,19.60
2022-08-12T00:45:23.754Z,19.60
2022-08-12T00:47:55.053Z,19.50
2022-08-12T00:50:24.194Z,19.50
2022-08-12T00:52:53.930Z,19.40
2022-08-12T00:55:22.568Z,19.40
2022-08-12T00:57:51.973Z,19.30
2022-08-12T01:00:25.423Z,19.30
2022-08-12T01:02:58.649Z,19.20
2022-08-12T01:05:45.252Z,19.10
2022-08-12T01:08:45.800Z,19.00
2022-08-12T01:11:29.933Z,18.90
2022-08-12T01:14:00.166Z,18.80
2022-08-12T01:16:30.661Z,18.70
2022-08-12T01:19:00.151Z,18.70
2022-08-12T01:22:03.027Z,18.70
2022-08-12T01:24:56.038Z,18.60
2022-08-12T01:27:27.183Z,18.60
2022-08-12T01:29:58.344Z,18.50
2022-08-12T01:32:29.841Z,18.50
2022-08-12T01:35:05.592Z,18.40
2022-08-12T01:37:44.296Z,18.40
2022-08-12T01:40:35.956Z,18.30
2022-08-12T01:43:09.100Z,18.20
2022-08-12T01:45:45.851Z,18.20
2022-08-12T01:48:23.978Z,18.10
2022-08-12T01:51:06.389Z,18.10
2022-08-12T01:53:52.320Z,18.00
2022-08-12T01:56:26.355Z,17.90
2022-08-12T01:59:16.427Z,17.90
2022-08-12T02:01:47.891Z,17.80
2022-08-12T02:04:46.236Z,17.70
2022-08-12T02:07:46.098Z,17.60
2022-08-12T02:10:50.996Z,17.40
2022-08-12T02:13:49.469Z,17.30
2022-08-12T02:16:38.047Z,17.20
2022-08-12T02:19:30.680Z,17.10
2022-08-12T02:22:13.207Z,17.00
2022-08-12T02:24:46.005Z,17.00
2022-08-12T02:27:16.876Z,16.90
2022-08-12T02:29:47.573Z,16.90
2022-08-12T02:32:16.118Z,16.80
2022-08-12T02:34:45.913Z,16.80
2022-08-12T02:37:16.808Z,16.70
2022-08-12T02:39:50.747Z,16.60
2022-08-12T02:42:22.169Z,16.50
2022-08-12T02:44:56.425Z,16.50
2022-08-12T02:47:58.631Z,16.40
2022-08-12T02:50:17.909Z,16.40
2022-08-12T02:52:47.457Z,16.30
2022-08-12T02:55:34.326Z,16.30
2022-08-12T02:58:12.709Z,16.30
2022-08-12T03:00:45.333Z,16.30
2022-08-12T03:03:15.922Z,16.20
2022-08-12T03:05:50.852Z,16.20
2022-08-12T03:08:31.446Z,16.20
2022-08-12T03:11:12.042Z,16.10
2022-08-12T03:13:47.825Z,16.10
2022-08-12T03:16:17.979Z,16.10
2022-08-12T03:18:46.895Z,16.00
2022-08-12T03:21:55.714Z,16.00
2022-08-12T03:24:09.191Z,15.90
2022-08-12T03:26:38.520Z,15.90
2022-08-12T03:29:08.215Z,15.90
2022-08-12T03:31:38.317Z,15.80
2022-08-12T03:34:10.127Z,15.80
2022-08-12T03:36:41.966Z,15.80
2022-08-12T03:39:36.880Z,15.70
2022-08-12T03:42:22.539Z,15.70
2022-08-12T03:45:24.699Z,15.60
2022-08-12T03:48:19.349Z,15.50
2022-08-12T03:51:06.373Z,15.50
2022-08-12T03:53:52.918Z,15.50
2022-08-12T03:56:39.144Z,15.50
2022-08-12T03:59:26.445Z,15.50
2022-08-12T04:01:58.344Z,15.40
2022-08-12T04:04:33.893Z,15.40
2022-08-12T04:07:04.482Z,15.30
2022-08-12T04:09:33.285Z,15.30
2022-08-12T04:12:19.333Z,15.30
2022-08-12T04:14:48.094Z,15.20
2022-08-12T04:17:17.276Z,15.30
2022-08-12T04:19:48.319Z,15.30
2022-08-12T04:22:17.033Z,15.30
2022-08-12T04:24:50.356Z,15.30
2022-08-12T04:27:19.195Z,15.30
2022-08-12T04:30:16.650Z,15.30
2022-08-12T04:32:40.856Z,15.40
2022-08-12T04:35:14.107Z,15.40
2022-08-12T04:37:58.627Z,15.50
2022-08-12T04:40:31.591Z,15.50
2022-08-12T04:43:02.168Z,15.50
2022-08-12T04:45:31.348Z,15.50
2022-08-12T04:47:59.980Z,15.60
2022-08-12T04:50:35.808Z,15.60
2022-08-12T04:53:07.988Z,15.70
2022-08-12T04:55:38.334Z,15.70
2022-08-12T04:58:06.912Z,15.80
2022-08-12T05:00:35.891Z,15.80
2022-08-12T05:03:05.736Z,15.90
2022-08-12T05:05:37.344Z,15.90
2022-08-12T05:08:09.633Z,16.00
2022-08-12T05:10:37.983Z,16.10
2022-08-12T05:13:19.962Z,16.20
2022-08-12T05:16:04.717Z,16.30
2022-08-12T05:18:35.417Z,16.40
2022-08-12T05:21:10.701Z,16.60
2022-08-12T05:23:40.990Z,16.70
2022-08-12T05:26:09.561Z,16.80
2022-08-12T05:28:38.430Z,17.00
2022-08-12T05:31:07.078Z,17.10
2022-08-12T05:33:37.697Z,17.20
2022-08-12T05:36:09.296Z,17.30
2022-08-12T05:38:55.807Z,17.50
2022-08-12T05:41:25.564Z,17.60
2022-08-12T05:43:56.290Z,17.80
2022-08-12T05:46:27.534Z,17.90
2022-08-12T05:49:01.295Z,18.10
2022-08-12T05:51:41.286Z,18.20
2022-08-12T05:54:13.770Z,18.30
2022-08-12T05:56:42.804Z,18.50
2022-08-12T05:59:13.029Z,18.60
2022-08-12T06:02:11.981Z,18.80
2022-08-12T06:04:33.513Z,18.90
2022-08-12T06:08:00.630Z,19.10
2022-08-12T06:09:57.665Z,19.30
2022-08-12T06:12:26.594Z,19.40
2022-08-12T06:14:55.760Z,19.60
2022-08-12T06:17:24.299Z,19.80
2022-08-12T06:20:27.398Z,19.90
2022-08-12T06:22:48.887Z,20.10
2022-08-12T06:25:21.716Z,20.30
2022-08-12T06:28:06.724Z,20.50
2022-08-12T06:30:39.523Z,20.60
2022-08-12T06:33:22.549Z,20.80
2022-08-12T06:35:58.958Z,20.90
2022-08-12T06:38:31.434Z,21.10
2022-08-12T06:41:19.249Z,21.20
2022-08-12T06:44:05.696Z,21.40
2022-08-12T06:46:38.670Z,21.60
2022-08-12T06:49:10.159Z,21.70
2022-08-12T06:51:38.433Z,21.90
2022-08-12T06:54:10.490Z,22.00
2022-08-12T06:59:27.324Z,22.20
2022-08-12T07:01:55.857Z,22.40
2022-08-12T07:04:39.764Z,22.50
2022-08-12T07:07:10.360Z,22.70
2022-08-12T07:10:03.823Z,22.80
2022-08-12T07:12:31.046Z,22.90
2022-08-12T07:15:01.695Z,23.10
2022-08-12T07:17:35.929Z,23.20
2022-08-12T07:20:09.907Z,23.30
2022-08-12T07:22:39.785Z,23.40
2022-08-12T07:25:28.307Z,23.60
2022-08-12T07:27:57.768Z,23.70
2022-08-12T07:30:26.338Z,23.90
2022-08-12T07:32:59.873Z,24.10
2022-08-12T07:35:31.036Z,24.20
2022-08-12T07:38:00.736Z,24.40
2022-08-12T07:40:31.072Z,24.60
2022-08-12T07:42:59.817Z,24.80
2022-08-12T07:45:28.140Z,25.00
2022-08-12T07:47:56.344Z,25.20
2022-08-12T07:50:24.935Z,25.30
2022-08-12T07:52:53.192Z,25.40
2022-08-12T07:55:21.468Z,25.50
2022-08-12T07:57:57.532Z,25.70
2022-08-12T08:00:28.005Z,25.90
2022-08-12T08:02:56.334Z,26.10
2022-08-12T08:05:27.206Z,26.30
2022-08-12T08:08:01.797Z,26.40
2022-08-12T08:10:31.615Z,26.60
2022-08-12T08:13:05.190Z,26.70
2022-08-12T08:18:27.528Z,27.20
2022-08-12T08:20:57.572Z,27.50
2022-08-12T08:23:56.275Z,27.80
2022-08-12T08:26:27.063Z,28.00
2022-08-12T08:28:56.940Z,28.30
2022-08-12T08:31:25.314Z,28.70
2022-08-12T08:34:09.460Z,29.20
2022-08-12T08:36:43.905Z,29.70
2022-08-12T08:39:16.937Z,30.20
2022-08-12T08:42:19.265Z,30.70
2022-08-12T08:44:58.187Z,31.40
2022-08-12T08:47:27.222Z,31.90
2022-08-12T08:50:00.969Z,32.10
2022-08-12T08:52:39.203Z,32.50
2022-08-12T08:55:10.656Z,32.40
2022-08-12T08:57:43.440Z,32.70
2022-08-12T09:00:19.944Z,33.10
2022-08-12T09:02:59.150Z,33.60
2022-08-12T09:05:43.196Z,33.90
2022-08-12T09:08:23.023Z,34.40
2022-08-12T09:10:59.937Z,34.30
2022-08-12T09:14:12.061Z,34.50
2022-08-12T09:16:24.266Z,34.80
2022-08-12T09:18:53.766Z,35.00
2022-08-12T09:21:23.412Z,35.20
2022-08-12T09:24:06.138Z,35.30
2022-08-12T09:30:08.877Z,36.50
2022-08-12T09:32:56.369Z,37.20
2022-08-12T09:35:03.295Z,37.60
2022-08-12T09:37:58.007Z,37.10
2022-08-12T09:41:02.306Z,37.20
2022-08-12T09:43:46.986Z,37.60
2022-08-12T09:46:25.463Z,38.10
2022-08-12T09:48:56.404Z,37.90
2022-08-12T09:51:35.605Z,38.20
2022-08-12T09:54:31.051Z,38.50
2022-08-12T09:56:59.309Z,37.90
2022-08-12T10:00:17.453Z,37.70
2022-08-12T10:02:44.670Z,37.90
2022-08-12T10:05:13.384Z,37.60
2022-08-12T10:07:45.863Z,37.90
2022-08-12T10:10:22.773Z,38.00
2022-08-12T10:13:14.490Z,38.40
2022-08-12T10:16:02.619Z,38.60
2022-08-12T10:18:35.253Z,39.10
2022-08-12T10:21:09.792Z,39.40
2022-08-12T10:23:40.994Z,39.50
2022-08-12T10:26:39.022Z,39.30
2022-08-12T10:30:03.331Z,40.00
2022-08-12T10:32:45.569Z,40.40
2022-08-12T10:35:10.575Z,40.60
2022-08-12T10:38:39.345Z,40.10
2022-08-12T10:40:34.015Z,39.80
2022-08-12T10:43:23.335Z,40.00
2022-08-12T10:45:51.740Z,40.20
2022-08-12T10:48:34.318Z,40.30
2022-08-12T10:52:02.872Z,40.70
2022-08-12T10:54:00.299Z,40.90
2022-08-12T10:56:34.748Z,41.30
2022-08-12T10:59:11.008Z,41.40
2022-08-12T11:04:14.501Z,41.60
2022-08-12T11:04:44.377Z,42.00
2022-08-12T11:08:34.641Z,42.30
2022-08-12T11:10:08.761Z,42.30
2022-08-12T11:12:59.175Z,41.60
2022-08-12T11:16:02.569Z,41.50
2022-08-12T11:18:18.312Z,41.70
2022-08-12T11:20:49.282Z,42.00
2022-08-12T11:23:25.459Z,41.80
2022-08-12T11:26:08.389Z,41.60
2022-08-12T11:28:38.853Z,41.50
2022-08-12T11:31:12.229Z,40.20
2022-08-12T11:34:04.590Z,40.50
2022-08-12T11:36:32.203Z,39.00
2022-08-12T11:39:04.117Z,37.40
2022-08-12T11:41:39.066Z,36.80
2022-08-12T11:44:31.978Z,37.70
2022-08-12T11:46:56.057Z,38.10
2022-08-12T11:49:31.073Z,37.30
2022-08-12T11:52:02.425Z,37.10
2022-08-12T11:54:32.038Z,36.60
2022-08-12T11:58:07.355Z,37.50
2022-08-12T12:02:42.826Z,38.30
2022-08-12T12:05:15.599Z,38.90
2022-08-12T12:08:40.960Z,39.80
2022-08-12T12:10:35.464Z,39.90
2022-08-12T12:13:11.608Z,40.10
2022-08-12T12:15:51.710Z,40.30
2022-08-12T12:18:31.104Z,39.90
2022-08-12T12:21:02.009Z,39.00
2022-08-12T12:23:36.285Z,37.80
2022-08-12T12:26:07.754Z,37.80
2022-08-12T12:28:41.570Z,38.40
2022-08-12T12:32:10.335Z,38.50
2022-08-12T12:34:12.624Z,37.70
2022-08-12T12:37:00.796Z,37.20
2022-08-12T12:39:29.446Z,36.20
2022-08-12T12:42:42.889Z,35.50
2022-08-12T12:45:36.304Z,35.10
2022-08-12T12:48:08.140Z,34.60
2022-08-12T12:50:45.593Z,33.80
2022-08-12T12:54:06.210Z,33.20
2022-08-12T12:56:16.905Z,33.40
2022-08-12T12:58:45.397Z,33.10
2022-08-12T13:01:27.986Z,32.60
2022-08-12T13:04:02.531Z,32.50
2022-08-12T13:06:32.307Z,33.00
2022-08-12T13:09:03.121Z,34.20
2022-08-12T13:11:41.471Z,34.30
2022-08-12T13:14:28.910Z,34.00
2022-08-12T13:17:02.910Z,33.50
2022-08-12T13:19:45.426Z,33.10
2022-08-12T13:22:21.004Z,33.00
2022-08-12T13:24:55.880Z,32.90
2022-08-12T13:27:35.119Z,33.80
2022-08-12T13:30:12.084Z,34.80
2022-08-12T13:33:20.720Z,36.10
2022-08-12T13:36:06.080Z,36.90
2022-08-12T13:38:38.745Z,37.90
2022-08-12T13:41:11.049Z,38.40
2022-08-12T13:43:41.510Z,38.90
2022-08-12T13:46:12.287Z,38.00
2022-08-12T13:48:44.664Z,37.60
2022-08-12T13:51:13.737Z,37.70
2022-08-12T13:53:57.764Z,37.40
2022-08-12T13:56:35.215Z,36.90
2022-08-12T13:59:08.491Z,36.70
2022-08-12T14:01:40.405Z,35.80
2022-08-12T14:04:11.337Z,35.20
2022-08-12T14:06:40.687Z,34.60
2022-08-12T14:09:15.415Z,34.90
2022-08-12T14:11:58.865Z,34.70
2022-08-12T14:14:31.410Z,34.20
2022-08-12T14:17:09.766Z,34.00
2022-08-12T14:20:01.073Z,34.10
2022-08-12T14:22:32.022Z,33.90
2022-08-12T14:25:02.342Z,34.10
2022-08-12T14:28:03.865Z,34.70
2022-08-12T14:30:29.491Z,35.00
2022-08-12T14:33:03.298Z,34.30
2022-08-12T14:35:41.069Z,33.60
2022-08-12T14:38:25.441Z,33.40
2022-08-12T14:40:57.547Z,33.10
2022-08-12T14:43:31.674Z,32.70
2022-08-12T14:46:20.444Z,32.80
2022-08-12T14:48:51.202Z,32.70
2022-08-12T14:52:43.399Z,32.40
2022-08-12T14:57:20.597Z,32.00
2022-08-12T15:00:06.511Z,32.10
2022-08-12T15:02:40.000Z,32.40
2022-08-12T15:05:09.163Z,32.40
2022-08-12T15:07:48.683Z,32.50
2022-08-12T15:10:32.417Z,32.60
2022-08-12T15:13:07.409Z,32.60
2022-08-12T15:15:45.787Z,32.60
2022-08-12T15:18:22.987Z,32.60
2022-08-12T15:20:55.538Z,32.40
2022-08-12T15:23:29.158Z,32.40
2022-08-12T15:26:03.692Z,32.10
2022-08-12T15:28:36.015Z,31.60
2022-08-12T15:31:21.216Z,31.30
2022-08-12T15:33:57.904Z,31.20
2022-08-12T15:36:53.572Z,30.90
2022-08-12T15:39:17.653Z,30.70
2022-08-12T15:41:55.213Z,30.70
2022-08-12T15:44:37.790Z,30.70
2022-08-12T15:47:11.621Z,30.60
2022-08-12T15:49:54.214Z,30.70
2022-08-12T15:52:28.207Z,30.70
2022-08-12T15:55:06.002Z,30.70
2022-08-12T15:57:41.482Z,30.70
2022-08-12T16:00:22.500Z,30.50
2022-08-12T16:03:05.455Z,30.30
2022-08-12T16:06:12.714Z,30.00
2022-08-12T16:08:27.485Z,29.80
2022-08-12T16:10:58.010Z,29.50
2022-08-12T16:13:34.438Z,29.30
2022-08-12T16:16:22.513Z,29.00
2022-08-12T16:18:59.495Z,28.80
2022-08-12T16:21:52.653Z,28.70
2022-08-12T16:24:19.563Z,28.60
2022-08-12T16:26:51.396Z,28.60
2022-08-12T16:29:29.410Z,28.60
2022-08-12T16:32:17.568Z,28.60
2022-08-12T16:34:55.536Z,28.60
2022-08-12T16:37:33.094Z,28.50
2022-08-12T16:40:14.557Z,28.50
2022-08-12T16:42:54.344Z,28.50
2022-08-12T16:45:32.176Z,28.60
2022-08-12T16:48:35.030Z,28.60
2022-08-12T16:51:09.867Z,28.50
2022-08-12T16:53:44.605Z,28.50
2022-08-12T16:56:17.153Z,28.50
2022-08-12T16:58:48.047Z,28.40
2022-08-12T17:01:16.784Z,28.40
2022-08-12T17:04:08.657Z,28.30
2022-08-12T17:06:44.986Z,28.20
2022-08-12T17:09:17.835Z,28.10
2022-08-12T17:11:49.093Z,28.10
2022-08-12T17:14:24.752Z,28.00
2022-08-12T17:16:54.858Z,28.00
2022-08-12T17:20:30.331Z,27.90
2022-08-12T17:22:16.235Z,27.80
2022-08-12T17:24:54.610Z,27.80
2022-08-12T17:27:23.931Z,27.80
2022-08-12T17:30:00.857Z,27.60
2022-08-12T17:32:35.803Z,27.60
2022-08-12T17:35:29.894Z,27.60
2022-08-12T17:38:11.916Z,27.50
2022-08-12T17:40:42.734Z,27.40
2022-08-12T17:43:54.855Z,27.40
2022-08-12T17:46:03.843Z,27.30
2022-08-12T17:48:38.840Z,27.20
2022-08-12T17:51:15.368Z,27.10
2022-08-12T17:54:10.406Z,27.00
2022-08-12T17:56:37.871Z,26.90
2022-08-12T17:59:12.242Z,26.80
2022-08-12T18:01:46.023Z,26.80
2022-08-12T18:04:22.994Z,26.70
2022-08-12T18:07:06.342Z,26.50
2022-08-12T18:09:37.769Z,26.50
2022-08-12T18:12:26.816Z,26.40
2022-08-12T18:14:58.517Z,26.30
2022-08-12T18:17:32.293Z,26.30
2022-08-12T18:20:07.957Z,26.20
2022-08-12T18:22:38.591Z,26.10
2022-08-12T18:26:16.078Z,26.00
2022-08-12T18:28:16.269Z,25.90
2022-08-12T18:30:52.860Z,25.70
2022-08-12T18:33:26.153Z,25.60
2022-08-12T18:35:57.168Z,25.50
2022-08-12T18:38:27.745Z,25.40
2022-08-12T18:41:21.976Z,25.30
2022-08-12T18:43:59.927Z,25.20
2022-08-12T18:46:39.324Z,25.00
2022-08-12T18:49:17.149Z,24.90
2022-08-12T18:51:55.095Z,24.80
2022-08-12T18:54:34.232Z,24.60
2022-08-12T18:57:15.395Z,24.50
2022-08-12T19:00:00.330Z,24.40
2022-08-12T19:02:36.335Z,24.40
2022-08-12T19:05:11.867Z,24.30
2022-08-12T19:07:58.035Z,24.20
2022-08-12T19:10:32.350Z,24.20
2022-08-12T19:13:23.079Z,24.10
2022-08-12T19:15:57.382Z,24.00
2022-08-12T19:18:29.709Z,23.90
2022-08-12T19:21:11.904Z,23.90
2022-08-12T19:24:04.946Z,23.80
2022-08-12T19:26:34.410Z,23.70
2022-08-12T19:29:04.936Z,23.60
2022-08-12T19:31:58.865Z,23.50
2022-08-12T19:37:27.330Z,23.30
2022-08-12T19:40:09.572Z,23.10
2022-08-12T19:42:53.406Z,23.00
2022-08-12T19:45:22.695Z,22.90
2022-08-12T19:47:51.238Z,22.80
2022-08-12T19:50:20.550Z,22.70
2022-08-12T19:52:51.116Z,22.70
2022-08-12T19:55:21.750Z,22.60
2022-08-12T19:58:01.816Z,22.50
2022-08-12T20:00:34.576Z,22.50
2022-08-12T20:03:06.160Z,22.40
2022-08-12T20:06:06.998Z,22.30
2022-08-12T20:08:33.054Z,22.20
2022-08-12T20:12:09.854Z,22.20
2022-08-12T20:14:01.142Z,22.10
2022-08-12T20:16:57.435Z,22.00
2022-08-12T20:19:52.188Z,21.90
2022-08-12T20:22:23.997Z,21.80
2022-08-12T20:25:05.088Z,21.80
2022-08-12T20:28:04.139Z,21.70
2022-08-12T20:30:38.113Z,21.60
2022-08-12T20:33:18.535Z,21.60
2022-08-12T20:36:06.307Z,21.50
2022-08-12T20:38:46.649Z,21.40
2022-08-12T20:41:19.329Z,21.40
2022-08-12T20:43:54.779Z,21.30
2022-08-12T20:46:27.980Z,21.30
2022-08-12T20:48:57.639Z,21.20
2022-08-12T20:51:28.215Z,21.20
2022-08-12T20:54:16.654Z,21.10
2022-08-12T20:56:48.393Z,21.10
2022-08-12T20:59:20.110Z,21.00
2022-08-12T21:01:54.042Z,21.00
2022-08-12T21:04:40.757Z,20.90
2022-08-12T21:07:13.855Z,20.80
2022-08-12T21:09:47.219Z,20.70
2022-08-12T21:12:30.962Z,20.70
2022-08-12T21:15:17.555Z,20.60
2022-08-12T21:18:15.373Z,20.60
2022-08-12T21:20:54.246Z,20.50
2022-08-12T21:23:23.748Z,20.50
2022-08-12T21:25:56.722Z,20.40
2022-08-12T21:28:32.008Z,20.30
2022-08-12T21:32:38.077Z,20.20
2022-08-12T21:34:07.359Z,20.10
2022-08-12T21:36:39.677Z,20.10
2022-08-12T21:39:20.337Z,20.00
2022-08-12T21:41:54.317Z,19.90
2022-08-12T21:45:45.538Z,19.80
2022-08-12T21:47:20.289Z,19.80
2022-08-12T21:50:02.381Z,19.70
2022-08-12T21:52:34.681Z,19.60
2022-08-12T21:55:19.196Z,19.50
2022-08-12T21:57:53.426Z,19.40
2022-08-12T22:00:33.467Z,19.40
2022-08-12T22:03:17.951Z,19.30
2022-08-12T22:06:31.418Z,19.20
2022-08-12T22:09:16.595Z,19.10
2022-08-12T22:11:56.824Z,19.00
2022-08-12T22:14:29.635Z,18.90
2022-08-12T22:17:01.520Z,18.80
2022-08-12T22:19:35.184Z,18.70
2022-08-12T22:22:05.370Z,18.60
2022-08-12T22:24:34.195Z,18.50
2022-08-12T22:27:17.974Z,18.50
2022-08-12T22:30:16.590Z,18.40
2022-08-12T22:32:49.513Z,18.40
2022-08-12T22:35:47.250Z,18.30
2022-08-12T22:38:26.252Z,18.20
2022-08-12T22:40:58.415Z,18.20
2022-08-12T22:43:58.735Z,18.10
2022-08-12T22:46:52.561Z,18.00
2022-08-12T22:49:36.946Z,17.90
2022-08-12T22:52:18.584Z,17.90
2022-08-12T22:55:02.561Z,17.80
2022-08-12T22:57:48.994Z,17.70
2022-08-12T23:00:28.282Z,17.70
2022-08-12T23:03:00.792Z,17.70
2022-08-12T23:06:09.736Z,17.70
2022-08-12T23:08:31.486Z,17.70
2022-08-12T23:11:00.789Z,17.70
2022-08-12T23:13:55.525Z,17.70
2022-08-12T23:16:31.504Z,17.60
2022-08-12T23:19:10.061Z,17.60
2022-08-12T23:22:05.677Z,17.50
2022-08-12T23:24:55.726Z,17.50
2022-08-12T23:27:51.045Z,17.50
2022-08-12T23:30:31.108Z,17.40
2022-08-12T23:33:01.291Z,17.40
2022-08-12T23:35:45.517Z,17.40
2022-08-12T23:38:30.474Z,17.40
2022-08-12T23:41:01.601Z,17.40
2022-08-12T23:43:39.679Z,17.40
2022-08-12T23:46:11.113Z,17.40
2022-08-12T23:48:40.782Z,17.30
2022-08-12T23:51:22.916Z,17.30
2022-08-12T23:53:56.154Z,17.30
2022-08-12T23:56:26.246Z,17.30
2022-08-12T23:58:55.331Z,17.20
